Time;durP1;ratioP1;P1;durP2;ratioP2;P2;SDS_P1;SDS_P2;PMS_P1;PMS_P2;Temp;Humidity;BMP_temperature;BMP_pressure;BME280_temperature;BME280_humidity;BME280_pressure;Samples;Min_cycle;Max_cycle;Signal;HPM_P1;HPM_P2
2023/11/14 00:00:31;;;;;;;9.27;1.33;;;;;;;;;;5047788;28;20061;-37
2023/11/14 00:02:58;;;;;;;9.55;1.52;;;;;;;;;;5044479;28;20541;-36
2023/11/14 00:05:25;;;;;;;8.45;1.58;;;;;;;;;;5038637;28;20049;-38
2023/11/14 00:07:52;;;;;;;16.30;1.75;;;;;;;;;;5048053;28;20028;-39
2023/11/14 00:10:19;;;;;;;16.05;1.67;;;;;;;;;;5043801;28;20120;-36
2023/11/14 00:12:46;;;;;;;19.70;2.00;;;;;;;;;;5051270;28;20053;-37
2023/11/14 00:15:13;;;;;;;17.05;2.10;;;;;;;;;;5050515;28;20078;-35
2023/11/14 00:17:40;;;;;;;18.02;3.15;;;;;;;;;;5051184;28;20123;-36
2023/11/14 00:20:08;;;;;;;38.58;5.53;;;;;;;;;;5050911;28;20033;-36
2023/11/14 00:22:36;;;;;;;36.53;8.02;;;;;;;;;;5049737;28;20033;-40
2023/11/14 00:25:03;;;;;;;35.50;7.68;;;;;;;;;;5049763;28;20064;-36
2023/11/14 00:27:30;;;;;;;34.53;7.20;;;;;;;;;;5050482;28;20558;-38
2023/11/14 00:29:57;;;;;;;27.35;6.15;;;;;;;;;;5038739;28;20092;-37
2023/11/14 00:32:24;;;;;;;43.03;7.03;;;;;;;;;;5047861;28;20116;-38
2023/11/14 00:34:51;;;;;;;61.00;10.00;;;;;;;;;;5053852;28;20025;-38
2023/11/14 00:37:18;;;;;;;43.95;8.45;;;;;;;;;;5020555;28;20043;-38
2023/11/14 00:39:46;;;;;;;44.58;7.60;;;;;;;;;;5041774;28;20088;-37
2023/11/14 00:42:13;;;;;;;34.42;7.60;;;;;;;;;;5054584;28;20532;-38
2023/11/14 00:44:40;;;;;;;37.42;7.30;;;;;;;;;;5054725;28;20158;-37
2023/11/14 00:47:08;;;;;;;38.03;6.78;;;;;;;;;;5054724;28;20029;-38
2023/11/14 00:49:35;;;;;;;36.35;6.53;;;;;;;;;;5053872;28;20033;-38
2023/11/14 00:52:02;;;;;;;33.55;5.82;;;;;;;;;;5054152;28;20083;-38
2023/11/14 00:54:31;;;;;;;29.70;5.95;;;;;;;;;;5053268;28;20041;-38
2023/11/14 00:56:58;;;;;;;44.15;5.93;;;;;;;;;;5041907;28;20397;-38
2023/11/14 00:59:25;;;;;;;27.33;5.93;;;;;;;;;;5050294;28;20029;-39
2023/11/14 01:01:52;;;;;;;30.98;6.38;;;;;;;;;;5054541;28;20079;-38
2023/11/14 01:04:20;;;;;;;37.72;6.57;;;;;;;;;;5054299;28;20063;-38
2023/11/14 01:06:47;;;;;;;34.80;6.38;;;;;;;;;;5054125;28;20429;-39
2023/11/14 01:09:14;;;;;;;49.30;7.63;;;;;;;;;;5041700;28;20079;-37
2023/11/14 01:11:41;;;;;;;40.78;8.38;;;;;;;;;;5054555;28;20036;-37
2023/11/14 01:14:08;;;;;;;69.18;12.98;;;;;;;;;;5054675;28;20051;-38
2023/11/14 01:16:35;;;;;;;170.48;37.63;;;;;;;;;;5054018;28;20061;-36
2023/11/14 01:19:02;;;;;;;176.65;36.50;;;;;;;;;;5054430;28;20475;-43
2023/11/14 01:21:31;;;;;;;164.35;38.28;;;;;;;;;;5054223;28;20043;-40
2023/11/14 01:23:58;;;;;;;179.05;38.53;;;;;;;;;;5054237;28;20036;-36
2023/11/14 01:26:25;;;;;;;154.48;38.97;;;;;;;;;;5054103;28;20052;-42
2023/11/14 01:28:53;;;;;;;167.00;37.55;;;;;;;;;;5054254;28;20041;-37
2023/11/14 01:31:23;;;;;;;155.20;37.78;;;;;;;;;;5053580;28;20116;-38
2023/11/14 01:33:50;;;;;;;136.85;36.30;;;;;;;;;;5049025;28;20060;-40
2023/11/14 01:36:17;;;;;;;141.07;35.53;;;;;;;;;;5052613;28;20041;-36
2023/11/14 01:38:44;;;;;;;100.47;28.95;;;;;;;;;;5053499;28;20074;-39
2023/11/14 01:41:12;;;;;;;64.88;18.10;;;;;;;;;;5053823;28;20036;-40
2023/11/14 01:43:46;;;;;;;82.90;23.27;;;;;;;;;;5048187;28;20032;-38
2023/11/14 01:46:21;;;;;;;93.57;22.88;;;;;;;;;;5039373;28;20029;-39
2023/11/14 01:48:50;;;;;;;88.20;21.63;;;;;;;;;;5041827;28;20040;-40
2023/11/14 01:51:21;;;;;;;64.40;19.83;;;;;;;;;;5044976;28;20101;-40
2023/11/14 01:53:51;;;;;;;74.95;21.17;;;;;;;;;;5044797;28;20112;-39
2023/11/14 01:56:19;;;;;;;68.28;19.00;;;;;;;;;;5047200;28;20057;-40
2023/11/14 01:58:46;;;;;;;78.78;21.10;;;;;;;;;;5045382;28;20111;-37
2023/11/14 02:01:14;;;;;;;65.68;20.30;;;;;;;;;;5050628;28;20033;-39
2023/11/14 02:03:41;;;;;;;58.80;18.02;;;;;;;;;;5040519;28;20028;-37
2023/11/14 02:06:08;;;;;;;59.72;17.95;;;;;;;;;;5047895;28;20071;-39
2023/11/14 02:08:35;;;;;;;63.58;18.42;;;;;;;;;;5044583;28;20029;-41
2023/11/14 02:11:02;;;;;;;69.95;19.42;;;;;;;;;;5050204;28;20032;-43
2023/11/14 02:13:29;;;;;;;58.25;19.25;;;;;;;;;;5053143;28;20425;-42
2023/11/14 02:15:56;;;;;;;62.03;18.10;;;;;;;;;;5053255;28;20029;-43
2023/11/14 02:18:23;;;;;;;67.30;19.58;;;;;;;;;;5053574;28;20029;-45
2023/11/14 02:20:51;;;;;;;65.60;19.98;;;;;;;;;;5052810;28;20124;-42
2023/11/14 02:23:18;;;;;;;59.88;18.40;;;;;;;;;;5052699;28;20424;-45
2023/11/14 02:25:46;;;;;;;63.53;18.65;;;;;;;;;;5052728;28;20017;-42
2023/11/14 02:28:13;;;;;;;53.47;18.38;;;;;;;;;;5052666;28;20027;-44
2023/11/14 02:30:41;;;;;;;53.05;17.13;;;;;;;;;;5052476;28;20043;-43
2023/11/14 02:33:08;;;;;;;58.95;16.67;;;;;;;;;;5049718;28;20052;-43
2023/11/14 02:35:35;;;;;;;53.30;17.02;;;;;;;;;;5033948;28;20425;-44
2023/11/14 02:38:03;;;;;;;49.85;16.23;;;;;;;;;;5053292;28;20025;-45
2023/11/14 02:40:30;;;;;;;47.45;14.63;;;;;;;;;;5053231;28;20029;-42
2023/11/14 02:42:58;;;;;;;52.15;16.63;;;;;;;;;;5053255;28;20032;-46
2023/11/14 02:45:26;;;;;;;46.83;15.13;;;;;;;;;;5053331;28;20065;-42
2023/11/14 02:47:54;;;;;;;45.78;14.30;;;;;;;;;;5052866;28;20036;-43
2023/11/14 02:50:34;;;;;;;38.90;13.15;;;;;;;;;;5053076;28;20067;-43
2023/11/14 02:53:01;;;;;;;42.38;12.93;;;;;;;;;;5035115;28;20386;-42
2023/11/14 02:55:28;;;;;;;43.08;14.13;;;;;;;;;;5052977;28;20086;-44
2023/11/14 02:57:55;;;;;;;42.97;13.25;;;;;;;;;;5052744;28;20395;-43
2023/11/14 03:00:23;;;;;;;42.75;12.90;;;;;;;;;;5053080;28;20094;-43
2023/11/14 03:02:56;;;;;;;40.47;12.73;;;;;;;;;;5052596;28;20033;-46
2023/11/14 03:05:22;;;;;;;34.42;11.93;;;;;;;;;;5052594;28;20115;-42
2023/11/14 03:07:49;;;;;;;40.15;12.30;;;;;;;;;;5052690;28;20039;-45
2023/11/14 03:10:17;;;;;;;32.58;10.80;;;;;;;;;;5052613;28;20106;-42
2023/11/14 03:12:43;;;;;;;34.58;11.98;;;;;;;;;;5052665;28;20040;-42
2023/11/14 03:15:11;;;;;;;33.08;11.25;;;;;;;;;;5052533;28;20028;-42
2023/11/14 03:17:38;;;;;;;34.22;11.05;;;;;;;;;;5052310;28;20081;-42
2023/11/14 03:20:06;;;;;;;35.83;12.05;;;;;;;;;;5052504;28;20032;-43
2023/11/14 03:22:33;;;;;;;32.38;11.07;;;;;;;;;;5052502;28;20041;-43
2023/11/14 03:25:00;;;;;;;29.00;10.90;;;;;;;;;;5052453;28;20159;-42
2023/11/14 03:27:27;;;;;;;32.78;11.45;;;;;;;;;;5052251;28;20028;-43
2023/11/14 03:29:54;;;;;;;25.73;9.80;;;;;;;;;;5052257;28;20036;-42
2023/11/14 03:32:22;;;;;;;27.65;10.25;;;;;;;;;;5052357;28;20044;-41
2023/11/14 03:34:50;;;;;;;31.40;11.00;;;;;;;;;;5052360;28;20040;-42
2023/11/14 03:37:17;;;;;;;26.95;10.00;;;;;;;;;;5051995;28;20033;-42
2023/11/14 03:39:44;;;;;;;30.40;10.05;;;;;;;;;;5052097;28;20040;-43
2023/11/14 03:42:11;;;;;;;29.90;9.82;;;;;;;;;;5052033;28;20025;-43
2023/11/14 03:44:38;;;;;;;32.63;10.93;;;;;;;;;;5052062;28;20021;-42
2023/11/14 03:47:05;;;;;;;25.48;9.40;;;;;;;;;;5051920;28;20039;-42
2023/11/14 03:49:32;;;;;;;27.77;9.20;;;;;;;;;;5051918;28;20041;-43
2023/11/14 03:51:59;;;;;;;25.75;8.57;;;;;;;;;;5052250;28;20029;-46
2023/11/14 03:54:26;;;;;;;23.17;9.10;;;;;;;;;;5052166;28;20083;-44
2023/11/14 03:56:53;;;;;;;20.63;7.63;;;;;;;;;;5051894;28;20437;-44
2023/11/14 03:59:20;;;;;;;20.38;7.22;;;;;;;;;;5051997;28;20025;-45
2023/11/14 04:01:47;;;;;;;19.52;7.25;;;;;;;;;;5051977;28;20029;-44
2023/11/14 04:04:14;;;;;;;23.23;8.25;;;;;;;;;;5051965;28;20053;-47
2023/11/14 04:06:41;;;;;;;18.52;7.30;;;;;;;;;;5051950;28;20037;-46
2023/11/14 04:09:10;;;;;;;19.75;7.18;;;;;;;;;;5051415;28;20029;-43
2023/11/14 04:11:57;;;;;;;21.50;7.35;;;;;;;;;;5051780;28;20036;-43
2023/11/14 04:14:24;;;;;;;20.90;7.60;;;;;;;;;;5051996;28;20395;-42
2023/11/14 04:16:51;;;;;;;19.40;7.40;;;;;;;;;;5051742;28;20101;-42
2023/11/14 04:19:19;;;;;;;21.48;7.00;;;;;;;;;;5051885;28;20090;-43
2023/11/14 04:21:45;;;;;;;16.65;6.65;;;;;;;;;;5052034;28;20032;-43
2023/11/14 04:24:12;;;;;;;16.50;6.22;;;;;;;;;;5051808;28;20035;-42
2023/11/14 04:26:41;;;;;;;18.38;6.80;;;;;;;;;;5051826;28;20036;-44
2023/11/14 04:29:09;;;;;;;17.80;6.50;;;;;;;;;;5051601;28;20037;-43
2023/11/14 04:31:36;;;;;;;16.25;6.53;;;;;;;;;;5051536;28;20041;-43
2023/11/14 04:34:03;;;;;;;15.27;6.10;;;;;;;;;;5051639;28;20086;-42
2023/11/14 04:36:30;;;;;;;15.65;5.82;;;;;;;;;;5051763;28;20028;-43
2023/11/14 04:38:57;;;;;;;16.23;5.68;;;;;;;;;;5051536;28;20754;-43
2023/11/14 04:41:24;;;;;;;14.50;6.05;;;;;;;;;;5051587;28;20029;-43
2023/11/14 04:43:51;;;;;;;15.88;5.85;;;;;;;;;;5051501;28;20029;-43
2023/11/14 04:46:17;;;;;;;14.98;5.65;;;;;;;;;;5051579;28;20021;-42
2023/11/14 04:48:45;;;;;;;15.18;5.93;;;;;;;;;;5051410;28;20032;-46
2023/11/14 04:51:12;;;;;;;16.10;5.72;;;;;;;;;;5051535;28;20028;-43
2023/11/14 04:53:39;;;;;;;16.65;5.72;;;;;;;;;;5033472;28;20021;-45
2023/11/14 04:56:06;;;;;;;14.85;5.68;;;;;;;;;;5051235;28;20057;-44
2023/11/14 04:58:33;;;;;;;12.85;5.13;;;;;;;;;;5051299;28;20653;-42
2023/11/14 05:01:00;;;;;;;17.15;5.53;;;;;;;;;;5051408;28;20029;-45
2023/11/14 05:03:27;;;;;;;15.88;5.93;;;;;;;;;;5051376;28;20546;-44
2023/11/14 05:05:54;;;;;;;13.90;5.25;;;;;;;;;;5050962;28;20090;-43
2023/11/14 05:08:21;;;;;;;14.93;5.78;;;;;;;;;;5051004;28;20578;-44
2023/11/14 05:10:48;;;;;;;15.45;5.57;;;;;;;;;;5051083;28;20025;-43
2023/11/14 05:13:15;;;;;;;10.93;4.68;;;;;;;;;;5051078;28;20022;-43
2023/11/14 05:15:42;;;;;;;11.50;5.10;;;;;;;;;;5050758;28;20041;-42
2023/11/14 05:18:09;;;;;;;10.00;4.35;;;;;;;;;;5051014;28;20037;-42
2023/11/14 05:20:36;;;;;;;13.25;5.13;;;;;;;;;;5052003;28;20025;-42
2023/11/14 05:23:03;;;;;;;12.57;4.65;;;;;;;;;;5054712;28;20039;-46
2023/11/14 05:25:30;;;;;;;12.18;4.68;;;;;;;;;;5054668;28;20039;-42
2023/11/14 05:27:57;;;;;;;11.82;4.70;;;;;;;;;;5054685;28;20086;-47
2023/11/14 05:30:25;;;;;;;10.27;4.57;;;;;;;;;;5054655;28;20029;-42
2023/11/14 05:32:52;;;;;;;11.43;4.63;;;;;;;;;;5054436;28;20060;-43
2023/11/14 05:35:19;;;;;;;9.40;3.88;;;;;;;;;;5054296;28;20036;-43
2023/11/14 05:37:46;;;;;;;10.32;4.22;;;;;;;;;;5054421;28;20112;-43
2023/11/14 05:40:13;;;;;;;7.38;2.65;;;;;;;;;;5054475;28;20056;-42
2023/11/14 05:42:40;;;;;;;13.38;4.50;;;;;;;;;;5054405;28;20025;-43
2023/11/14 05:45:08;;;;;;;11.32;5.28;;;;;;;;;;5054361;28;20029;-43
2023/11/14 05:47:35;;;;;;;10.18;3.80;;;;;;;;;;5054241;28;20029;-42
2023/11/14 05:50:04;;;;;;;11.90;4.40;;;;;;;;;;5054183;28;20458;-42
2023/11/14 05:52:31;;;;;;;8.90;3.55;;;;;;;;;;5054094;28;20037;-42
2023/11/14 05:54:58;;;;;;;9.15;3.63;;;;;;;;;;5054146;28;20501;-42
2023/11/14 05:57:25;;;;;;;9.63;3.45;;;;;;;;;;5054058;28;20427;-44
2023/11/14 05:59:55;;;;;;;9.80;3.47;;;;;;;;;;5054088;28;20102;-43
2023/11/14 06:02:25;;;;;;;8.02;3.50;;;;;;;;;;5051991;28;20127;-42
2023/11/14 06:04:52;;;;;;;9.70;3.42;;;;;;;;;;5053809;28;20495;-43
2023/11/14 06:07:19;;;;;;;9.48;3.40;;;;;;;;;;5053877;28;20116;-43
2023/11/14 06:09:46;;;;;;;6.10;2.85;;;;;;;;;;5053874;28;20551;-43
2023/11/14 06:12:13;;;;;;;9.52;3.20;;;;;;;;;;5054176;28;20403;-42
2023/11/14 06:14:41;;;;;;;6.80;2.92;;;;;;;;;;5053795;28;20033;-42
2023/11/14 06:17:08;;;;;;;6.03;2.65;;;;;;;;;;5053379;28;20064;-42
2023/11/14 06:19:36;;;;;;;8.52;2.95;;;;;;;;;;5053619;28;20032;-43
2023/11/14 06:22:04;;;;;;;8.32;3.35;;;;;;;;;;5053892;28;20398;-42
2023/11/14 06:24:32;;;;;;;7.32;2.95;;;;;;;;;;5053154;28;20059;-43
2023/11/14 06:26:59;;;;;;;7.22;3.10;;;;;;;;;;5053409;28;20064;-43
2023/11/14 06:29:26;;;;;;;7.93;2.75;;;;;;;;;;5053622;28;20028;-43
2023/11/14 06:31:53;;;;;;;7.55;2.88;;;;;;;;;;5053090;28;20028;-44
2023/11/14 06:34:21;;;;;;;6.70;2.88;;;;;;;;;;5053504;28;20474;-44
2023/11/14 06:36:48;;;;;;;7.85;3.00;;;;;;;;;;5053011;28;20037;-42
2023/11/14 06:39:16;;;;;;;7.40;2.97;;;;;;;;;;5053317;28;20550;-43
2023/11/14 06:41:48;;;;;;;7.18;2.83;;;;;;;;;;5053311;28;20033;-45
2023/11/14 06:44:15;;;;;;;7.32;2.70;;;;;;;;;;5053059;28;20029;-45
2023/11/14 06:46:42;;;;;;;7.63;2.80;;;;;;;;;;5035154;28;20033;-43
2023/11/14 06:49:09;;;;;;;5.65;2.50;;;;;;;;;;5035213;28;20032;-42
2023/11/14 06:51:36;;;;;;;6.35;3.00;;;;;;;;;;5053088;28;20036;-44
2023/11/14 06:54:03;;;;;;;6.95;2.67;;;;;;;;;;5053029;28;20106;-43
2023/11/14 06:56:29;;;;;;;5.63;2.60;;;;;;;;;;5052927;28;20096;-43
2023/11/14 06:58:56;;;;;;;8.43;3.28;;;;;;;;;;5052956;28;20021;-43
2023/11/14 07:01:23;;;;;;;7.95;2.55;;;;;;;;;;5052518;28;20062;-45
2023/11/14 07:03:50;;;;;;;6.82;2.92;;;;;;;;;;5052688;28;20702;-43
2023/11/14 07:06:19;;;;;;;4.53;2.35;;;;;;;;;;5052667;28;20052;-42
2023/11/14 07:08:46;;;;;;;5.93;2.65;;;;;;;;;;5052615;28;20033;-42
2023/11/14 07:11:13;;;;;;;7.88;2.72;;;;;;;;;;5052663;28;20098;-42
2023/11/14 07:13:40;;;;;;;6.22;2.50;;;;;;;;;;5052644;28;20052;-42
2023/11/14 07:16:09;;;;;;;5.05;2.70;;;;;;;;;;5052435;28;20025;-42
2023/11/14 07:18:37;;;;;;;6.53;2.92;;;;;;;;;;5052436;28;20037;-43
2023/11/14 07:21:04;;;;;;;5.20;2.78;;;;;;;;;;5052525;28;20394;-42
2023/11/14 07:23:31;;;;;;;6.70;2.78;;;;;;;;;;5052524;28;20032;-42
2023/11/14 07:25:58;;;;;;;6.47;2.30;;;;;;;;;;5052371;28;20037;-42
2023/11/14 07:28:25;;;;;;;5.93;2.55;;;;;;;;;;5052290;28;20029;-42
2023/11/14 07:30:52;;;;;;;6.05;2.60;;;;;;;;;;5052315;28;20025;-42
2023/11/14 07:33:19;;;;;;;6.22;2.50;;;;;;;;;;5052295;28;20028;-45
2023/11/14 07:35:46;;;;;;;5.22;2.42;;;;;;;;;;5052061;28;20140;-43
2023/11/14 07:38:13;;;;;;;6.57;2.40;;;;;;;;;;5052025;28;20561;-43
2023/11/14 07:40:40;;;;;;;5.03;2.33;;;;;;;;;;5052083;28;20121;-42
2023/11/14 07:43:09;;;;;;;4.50;2.47;;;;;;;;;;5051463;28;20419;-42
2023/11/14 07:45:36;;;;;;;5.72;2.67;;;;;;;;;;5051962;28;20036;-43
2023/11/14 07:48:03;;;;;;;3.90;1.83;;;;;;;;;;5052032;28;20061;-43
2023/11/14 07:50:30;;;;;;;6.50;2.80;;;;;;;;;;5052022;28;20043;-43
2023/11/14 07:52:57;;;;;;;4.97;2.00;;;;;;;;;;5051995;28;20407;-42
2023/11/14 07:55:24;;;;;;;6.07;2.33;;;;;;;;;;5051650;28;20729;-42
2023/11/14 07:57:51;;;;;;;7.00;2.63;;;;;;;;;;5051871;28;20490;-43
2023/11/14 08:00:20;;;;;;;4.15;2.05;;;;;;;;;;5051880;28;20025;-42
2023/11/14 08:02:47;;;;;;;5.45;2.00;;;;;;;;;;5051679;28;20040;-42
2023/11/14 08:05:14;;;;;;;3.63;1.95;;;;;;;;;;5051479;28;20041;-46
2023/11/14 08:07:41;;;;;;;5.70;2.35;;;;;;;;;;5051785;28;20037;-42
2023/11/14 08:10:09;;;;;;;4.80;2.05;;;;;;;;;;5051679;28;20052;-44
2023/11/14 08:12:36;;;;;;;4.20;2.10;;;;;;;;;;5051602;28;20043;-43
2023/11/14 08:15:03;;;;;;;3.95;1.50;;;;;;;;;;5051720;28;20021;-43
2023/11/14 08:17:30;;;;;;;4.45;2.00;;;;;;;;;;5051577;28;20036;-43
2023/11/14 08:19:58;;;;;;;3.90;2.10;;;;;;;;;;5051618;28;20025;-44
2023/11/14 08:22:25;;;;;;;6.25;2.15;;;;;;;;;;5051397;28;20041;-42
2023/11/14 08:24:52;;;;;;;6.25;2.15;;;;;;;;;;5051598;28;20025;-43
2023/11/14 08:27:19;;;;;;;4.82;1.90;;;;;;;;;;5051460;28;20090;-42
2023/11/14 08:29:47;;;;;;;4.68;1.90;;;;;;;;;;5051518;28;20033;-42
2023/11/14 08:32:17;;;;;;;5.53;2.58;;;;;;;;;;5051615;28;20690;-43
2023/11/14 08:34:44;;;;;;;4.68;1.92;;;;;;;;;;5051377;28;20041;-44
2023/11/14 08:37:11;;;;;;;4.00;2.13;;;;;;;;;;5051117;28;20037;-44
2023/11/14 08:39:38;;;;;;;5.07;2.15;;;;;;;;;;5051402;28;20040;-42
2023/11/14 08:42:11;;;;;;;3.25;1.60;;;;;;;;;;5051381;28;20407;-43
2023/11/14 08:44:40;;;;;;;5.53;2.00;;;;;;;;;;5051230;28;20521;-42
2023/11/14 08:47:07;;;;;;;4.97;1.92;;;;;;;;;;5051041;28;20483;-42
2023/11/14 08:49:34;;;;;;;4.22;2.00;;;;;;;;;;5051356;28;20074;-42
2023/11/14 08:52:01;;;;;;;5.10;2.33;;;;;;;;;;5051338;28;20025;-43
2023/11/14 08:54:28;;;;;;;4.35;2.17;;;;;;;;;;5052082;28;20029;-42
2023/11/14 08:56:55;;;;;;;4.13;2.17;;;;;;;;;;5055081;28;20033;-43
2023/11/14 08:59:22;;;;;;;4.38;1.70;;;;;;;;;;5055132;28;20144;-45
2023/11/14 09:01:49;;;;;;;4.18;1.92;;;;;;;;;;5055174;28;20048;-42
2023/11/14 09:04:18;;;;;;;5.57;1.85;;;;;;;;;;5054403;28;20045;-43
2023/11/14 09:06:45;;;;;;;6.90;1.73;;;;;;;;;;5054744;28;20033;-43
2023/11/14 09:09:12;;;;;;;3.08;1.45;;;;;;;;;;5055057;28;20048;-44
2023/11/14 09:11:39;;;;;;;3.97;1.70;;;;;;;;;;5054909;28;20029;-42
2023/11/14 09:14:08;;;;;;;3.80;1.70;;;;;;;;;;5054847;28;20035;-43
2023/11/14 09:16:35;;;;;;;4.97;1.80;;;;;;;;;;5054767;28;20075;-46
2023/11/14 09:19:04;;;;;;;3.88;1.80;;;;;;;;;;5053486;28;20143;-45
2023/11/14 09:21:31;;;;;;;4.55;1.90;;;;;;;;;;5053035;28;20741;-44
2023/11/14 09:23:58;;;;;;;3.72;1.88;;;;;;;;;;5054294;28;20094;-45
2023/11/14 09:26:25;;;;;;;3.55;1.58;;;;;;;;;;5053482;28;20114;-44
2023/11/14 09:28:52;;;;;;;3.45;1.50;;;;;;;;;;5054185;28;20483;-43
2023/11/14 09:31:20;;;;;;;4.13;1.73;;;;;;;;;;5053903;28;20036;-44
2023/11/14 09:33:47;;;;;;;4.47;1.80;;;;;;;;;;5053973;28;20044;-48
2023/11/14 09:36:15;;;;;;;4.57;1.55;;;;;;;;;;5053738;28;20036;-43
2023/11/14 09:38:42;;;;;;;3.08;1.50;;;;;;;;;;5049420;28;20150;-44
2023/11/14 09:41:09;;;;;;;6.10;1.90;;;;;;;;;;5053516;28;20033;-43
2023/11/14 09:43:36;;;;;;;5.70;1.70;;;;;;;;;;5053429;28;20021;-44
2023/11/14 09:46:04;;;;;;;6.47;1.65;;;;;;;;;;5052152;28;20531;-43
2023/11/14 09:48:31;;;;;;;5.32;1.92;;;;;;;;;;5053298;28;20033;-45
2023/11/14 09:51:00;;;;;;;4.90;1.77;;;;;;;;;;5053479;28;20031;-43
2023/11/14 09:53:28;;;;;;;6.57;2.03;;;;;;;;;;5053770;28;20056;-45
2023/11/14 09:55:55;;;;;;;6.47;1.70;;;;;;;;;;5053540;28;20037;-44
2023/11/14 09:58:23;;;;;;;4.15;1.95;;;;;;;;;;5050973;28;20078;-43
2023/11/14 10:00:50;;;;;;;4.95;1.60;;;;;;;;;;5053657;28;20471;-44
2023/11/14 10:03:18;;;;;;;4.95;1.90;;;;;;;;;;5053309;28;20075;-44
2023/11/14 10:05:45;;;;;;;7.38;1.90;;;;;;;;;;5052697;28;20077;-43
2023/11/14 10:08:13;;;;;;;4.63;1.70;;;;;;;;;;5053171;28;20024;-45
2023/11/14 10:10:40;;;;;;;5.65;1.92;;;;;;;;;;5053634;28;20037;-44
2023/11/14 10:13:27;;;;;;;9.88;2.15;;;;;;;;;;5054061;28;20039;-44
2023/11/14 10:15:54;;;;;;;7.57;1.88;;;;;;;;;;5052888;28;20044;-43
2023/11/14 10:18:30;;;;;;;7.70;1.48;;;;;;;;;;5053196;28;20037;-44
2023/11/14 10:20:57;;;;;;;5.85;1.63;;;;;;;;;;5051737;28;20368;-44
2023/11/14 10:23:34;;;;;;;6.38;1.77;;;;;;;;;;5051639;28;20409;-45
2023/11/14 10:26:08;;;;;;;8.80;1.70;;;;;;;;;;5052321;28;20410;-44
2023/11/14 10:28:36;;;;;;;7.47;1.80;;;;;;;;;;5052401;28;20139;-45
2023/11/14 10:31:03;;;;;;;6.35;1.95;;;;;;;;;;5050269;28;20028;-44
2023/11/14 10:33:40;;;;;;;10.18;2.08;;;;;;;;;;5052858;28;20475;-46
2023/11/14 10:36:09;;;;;;;9.68;2.10;;;;;;;;;;5050462;28;20037;-43
2023/11/14 10:38:37;;;;;;;5.50;1.80;;;;;;;;;;5052700;28;20037;-47
2023/11/14 10:41:04;;;;;;;8.80;1.70;;;;;;;;;;5050180;28;20032;-45
2023/11/14 10:43:32;;;;;;;6.18;1.80;;;;;;;;;;5052614;28;20364;-44
2023/11/14 10:46:07;;;;;;;9.80;1.65;;;;;;;;;;5052884;28;20055;-43
2023/11/14 10:48:34;;;;;;;8.27;1.58;;;;;;;;;;5053020;28;20840;-43
2023/11/14 10:51:02;;;;;;;7.97;1.80;;;;;;;;;;5053141;28;20475;-43
2023/11/14 10:53:30;;;;;;;7.97;1.92;;;;;;;;;;5053139;28;20036;-45
2023/11/14 10:55:57;;;;;;;9.52;1.90;;;;;;;;;;5052972;28;20025;-43
2023/11/14 10:58:24;;;;;;;17.15;2.13;;;;;;;;;;5052966;28;20037;-43
2023/11/14 11:00:52;;;;;;;9.68;2.65;;;;;;;;;;5052986;28;20114;-44
2023/11/14 11:03:19;;;;;;;10.63;2.08;;;;;;;;;;5052954;28;20029;-44
2023/11/14 11:05:47;;;;;;;10.02;1.65;;;;;;;;;;5052016;28;20470;-45
2023/11/14 11:08:14;;;;;;;8.18;1.70;;;;;;;;;;5052233;28;20029;-35
2023/11/14 11:10:42;;;;;;;6.93;1.90;;;;;;;;;;5051581;28;20033;-35
2023/11/14 11:13:15;;;;;;;34.38;3.00;;;;;;;;;;5051707;28;20030;-36
2023/11/14 11:15:46;;;;;;;12.63;2.35;;;;;;;;;;5052387;28;20044;-35
2023/11/14 11:18:13;;;;;;;12.38;2.08;;;;;;;;;;5052197;28;20031;-32
2023/11/14 11:20:41;;;;;;;15.13;2.38;;;;;;;;;;5052587;28;20141;-32
2023/11/14 11:23:09;;;;;;;29.63;3.25;;;;;;;;;;5052485;28;20100;-34
2023/11/14 11:25:48;;;;;;;33.63;3.15;;;;;;;;;;5052331;28;20029;-34
2023/11/14 11:28:21;;;;;;;27.73;4.03;;;;;;;;;;5052290;28;20104;-33
2023/11/14 11:31:06;;;;;;;34.38;3.67;;;;;;;;;;5052318;28;20025;-33
2023/11/14 11:33:37;;;;;;;36.08;3.60;;;;;;;;;;5052292;28;20021;-33
2023/11/14 11:36:30;;;;;;;18.88;2.80;;;;;;;;;;5052093;28;20032;-33
2023/11/14 11:38:58;;;;;;;18.50;2.95;;;;;;;;;;5049623;28;20487;-33
2023/11/14 11:41:32;;;;;;;22.50;3.03;;;;;;;;;;5052238;28;20657;-33
2023/11/14 11:43:59;;;;;;;22.40;3.13;;;;;;;;;;5051978;28;20029;-33
2023/11/14 11:46:46;;;;;;;24.42;2.63;;;;;;;;;;5052061;28;20123;-33
2023/11/14 11:49:20;;;;;;;25.77;3.72;;;;;;;;;;5052019;28;20057;-33
2023/11/14 11:51:47;;;;;;;19.65;2.45;;;;;;;;;;5051916;28;20116;-33
2023/11/14 11:54:31;;;;;;;10.43;1.90;;;;;;;;;;5051837;28;20091;-34
2023/11/14 11:57:09;;;;;;;104.63;7.40;;;;;;;;;;5046835;28;20045;-41
2023/11/14 11:59:42;;;;;;;53.70;4.50;;;;;;;;;;5051521;28;20043;-42
2023/11/14 12:02:13;;;;;;;29.13;2.97;;;;;;;;;;5050602;28;20029;-37
2023/11/14 12:04:42;;;;;;;35.83;3.00;;;;;;;;;;5049854;28;20041;-39
2023/11/14 12:07:11;;;;;;;37.75;3.67;;;;;;;;;;5051342;28;20041;-38
2023/11/14 12:09:39;;;;;;;34.15;3.30;;;;;;;;;;5051647;28;20029;-43
2023/11/14 12:12:06;;;;;;;34.88;2.95;;;;;;;;;;5051376;28;20029;-46
2023/11/14 12:14:34;;;;;;;30.73;2.78;;;;;;;;;;5049996;28;20047;-38
2023/11/14 12:17:03;;;;;;;22.58;1.95;;;;;;;;;;5050633;28;20041;-43
2023/11/14 12:19:30;;;;;;;25.75;2.63;;;;;;;;;;5051190;28;20115;-42
2023/11/14 12:21:57;;;;;;;17.52;2.17;;;;;;;;;;5051413;28;20029;-42
2023/11/14 12:24:24;;;;;;;22.02;1.30;;;;;;;;;;5044997;28;20032;-43
2023/11/14 12:26:51;;;;;;;17.42;1.85;;;;;;;;;;5048777;28;20388;-42
2023/11/14 12:29:19;;;;;;;25.17;3.17;;;;;;;;;;5050171;28;20053;-42
2023/11/14 12:31:51;;;;;;;29.48;2.10;;;;;;;;;;5050732;28;20469;-43
2023/11/14 12:34:31;;;;;;;16.77;2.00;;;;;;;;;;5042041;28;20036;-42
2023/11/14 12:37:07;;;;;;;32.65;2.05;;;;;;;;;;5041800;28;20033;-43
2023/11/14 12:39:34;;;;;;;13.55;2.00;;;;;;;;;;5041953;28;20123;-42
2023/11/14 12:42:01;;;;;;;15.13;1.65;;;;;;;;;;5041241;28;20069;-43
2023/11/14 12:44:28;;;;;;;16.55;1.83;;;;;;;;;;5039801;28;20391;-42
2023/11/14 12:46:56;;;;;;;19.45;1.55;;;;;;;;;;5041350;28;20111;-42
2023/11/14 12:49:27;;;;;;;27.10;1.83;;;;;;;;;;5041335;28;20034;-43
2023/11/14 12:52:00;;;;;;;20.25;2.33;;;;;;;;;;5041852;28;20029;-43
2023/11/14 12:54:27;;;;;;;17.90;1.90;;;;;;;;;;5041775;28;20038;-42
2023/11/14 12:56:55;;;;;;;11.68;1.77;;;;;;;;;;5041693;28;20396;-43
2023/11/14 12:59:22;;;;;;;24.08;2.55;;;;;;;;;;5040849;28;20041;-43
2023/11/14 13:01:49;;;;;;;21.52;2.05;;;;;;;;;;5039656;28;20021;-43
2023/11/14 13:04:17;;;;;;;19.50;1.58;;;;;;;;;;5040994;28;20025;-43
2023/11/14 13:06:45;;;;;;;15.07;1.80;;;;;;;;;;5040826;28;20048;-44
2023/11/14 13:09:13;;;;;;;17.88;1.75;;;;;;;;;;5050623;28;20386;-42
2023/11/14 13:11:40;;;;;;;14.70;1.75;;;;;;;;;;5050469;28;20029;-42
2023/11/14 13:14:07;;;;;;;16.60;1.60;;;;;;;;;;5050577;28;20078;-42
2023/11/14 13:16:37;;;;;;;18.30;2.13;;;;;;;;;;5050301;28;20044;-44
2023/11/14 13:19:05;;;;;;;15.70;2.33;;;;;;;;;;5048142;28;20061;-42
2023/11/14 13:21:33;;;;;;;16.73;1.50;;;;;;;;;;5050421;28;20044;-41
2023/11/14 13:24:00;;;;;;;18.15;1.60;;;;;;;;;;5050273;28;20048;-43
2023/11/14 13:26:27;;;;;;;11.02;1.00;;;;;;;;;;5050816;28;20025;-42
2023/11/14 13:28:55;;;;;;;13.68;1.50;;;;;;;;;;5049195;28;20391;-42
2023/11/14 13:31:22;;;;;;;49.47;3.72;;;;;;;;;;5037301;28;20115;-44
2023/11/14 13:33:50;;;;;;;19.58;1.45;;;;;;;;;;5050498;28;20051;-43
2023/11/14 13:36:19;;;;;;;20.48;1.63;;;;;;;;;;5050143;28;20036;-43
2023/11/14 13:38:47;;;;;;;8.38;1.52;;;;;;;;;;5050338;28;20041;-44
2023/11/14 13:41:14;;;;;;;12.05;1.42;;;;;;;;;;5051229;28;20021;-44
2023/11/14 13:43:41;;;;;;;9.15;0.95;;;;;;;;;;5053939;28;20065;-44
2023/11/14 13:46:08;;;;;;;17.85;1.20;;;;;;;;;;5053920;28;20086;-44
2023/11/14 13:48:35;;;;;;;16.08;1.80;;;;;;;;;;5054138;28;20036;-46
2023/11/14 13:51:02;;;;;;;19.10;1.70;;;;;;;;;;5053737;28;20046;-47
2023/11/14 13:53:29;;;;;;;21.05;2.03;;;;;;;;;;5053889;28;20055;-47
2023/11/14 13:55:57;;;;;;;43.83;2.00;;;;;;;;;;5035440;28;20399;-45
2023/11/14 13:58:24;;;;;;;11.65;1.58;;;;;;;;;;5053819;28;20080;-44
2023/11/14 14:00:51;;;;;;;25.98;3.28;;;;;;;;;;5035503;28;20399;-47
2023/11/14 14:03:20;;;;;;;18.05;2.70;;;;;;;;;;5053914;28;20036;-41
2023/11/14 14:05:47;;;;;;;21.40;2.97;;;;;;;;;;5053110;28;20044;-41
2023/11/14 14:08:15;;;;;;;14.23;1.98;;;;;;;;;;5053508;28;20106;-41
2023/11/14 14:10:43;;;;;;;15.70;2.20;;;;;;;;;;5053502;28;20036;-42
2023/11/14 14:13:14;;;;;;;23.30;1.67;;;;;;;;;;5053581;28;20434;-41
2023/11/14 14:15:41;;;;;;;15.55;1.70;;;;;;;;;;5053300;28;20033;-41
2023/11/14 14:18:09;;;;;;;25.90;2.42;;;;;;;;;;5053102;28;20036;-41
2023/11/14 14:20:36;;;;;;;18.70;1.83;;;;;;;;;;5053234;28;20044;-41
2023/11/14 14:23:03;;;;;;;14.85;1.58;;;;;;;;;;5052929;28;20494;-40
2023/11/14 14:25:31;;;;;;;11.93;1.85;;;;;;;;;;5053309;28;20039;-41
2023/11/14 14:27:58;;;;;;;18.50;1.40;;;;;;;;;;5052940;28;20029;-42
2023/11/14 14:30:25;;;;;;;16.92;2.13;;;;;;;;;;5053250;28;20125;-41
2023/11/14 14:32:52;;;;;;;13.23;1.90;;;;;;;;;;5033692;28;20037;-41
2023/11/14 14:35:19;;;;;;;17.40;1.92;;;;;;;;;;5033305;28;20104;-43